This is the latest recevied weather packets stored in our database for station/object KB4JHU-15. If no packets are shown the sender has not sent any weather packets the latest 10 day(s).
| Time | Temp. | Humidity | Pressure | Rain* | Wind** | Luminosity | Snow |
|---|---|---|---|---|---|---|---|
| 1788400558 | 28.33° C | 71% | - | 0 mm | - | - | - |
| 1788398757 | 28.89° C | 66% | - | 0 mm | - | - | - |
| 1788396956 | 30.56° C | 60% | - | 0 mm | - | - | - |
| 1788395155 | 31.67° C | 55% | - | 0 mm | - | - | - |
| 1788393354 | 33.33° C | 48% | - | 0 mm | - | - | - |
| 1788391553 | 35° C | 44% | - | 0 mm | - | - | - |
| 1788389752 | 35.56° C | 38% | - | 0 mm | - | - | - |
| 1788387951 | 34.44° C | 43% | - | 0 mm | - | - | - |
| 1788386150 | 35.56° C | 39% | - | 0 mm | - | - | - |
| 1788384349 | 36.11° C | 36% | - | 0 mm | - | - | - |
| 1788382568 | 36.11° C | 38% | - | 0 mm | - | - | - |
| 1788380747 | 36.67° C | 37% | - | 0 mm | - | - | - |
| 1788378946 | 35.56° C | 42% | - | 0 mm | - | - | - |
| 1788377145 | 35.56° C | 41% | - | 0 mm | - | - | - |
| 1788375344 | 34.44° C | 42% | - | 0 mm | - | - | - |
| 1788373543 | 36.11° C | 41% | - | 0 mm | - | - | - |
| 1788371742 | 34.44° C | 43% | - | 0 mm | - | - | - |
| 1788369941 | 33.89° C | 44% | - | 0 mm | - | - | - |
| 1788368140 | 33.89° C | 46% | - | 0 mm | - | - | - |
| 1788366339 | 32.78° C | 50% | - | 0 mm | - | - | - |
| 1788364538 | 33.89° C | 47% | - | 0 mm | - | - | - |
| 1788362737 | 33.33° C | 46% | - | 0 mm | - | - | - |
| 1788360978 | 32.22° C | 52% | - | 0 mm | - | - | - |
| 1788360936 | 32.22° C | 52% | - | 0 mm | - | - | - |
| 1788359135 | 30.56° C | 61% | - | 0 mm | - | - | - |
* Rain latest hour (hover to see other rain measurements)
** Current wind speed in m/s (hover to see current wind gust speed)